sensor_id;sensor_type;location;lat;lon;timestamp;P1;durP1;ratioP1;P2;durP2;ratioP2
17310;SDS011;8773;43.300;0.394;2023-02-04T00:00:38;33.90;;;27.87;;
17310;SDS011;8773;43.300;0.394;2023-02-04T00:03:07;35.97;;;28.10;;
17310;SDS011;8773;43.300;0.394;2023-02-04T00:05:35;40.27;;;32.30;;
17310;SDS011;8773;43.300;0.394;2023-02-04T00:08:04;37.13;;;29.77;;
17310;SDS011;8773;43.300;0.394;2023-02-04T00:10:32;30.47;;;26.33;;
17310;SDS011;8773;43.300;0.394;2023-02-04T00:13:01;33.77;;;25.37;;
17310;SDS011;8773;43.300;0.394;2023-02-04T00:15:29;34.17;;;24.27;;
17310;SDS011;8773;43.300;0.394;2023-02-04T00:17:58;32.97;;;24.37;;
17310;SDS011;8773;43.300;0.394;2023-02-04T00:20:26;45.50;;;32.33;;
17310;SDS011;8773;43.300;0.394;2023-02-04T00:22:54;37.93;;;27.67;;
17310;SDS011;8773;43.300;0.394;2023-02-04T00:25:24;33.63;;;24.97;;
17310;SDS011;8773;43.300;0.394;2023-02-04T00:27:52;34.90;;;24.03;;
17310;SDS011;8773;43.300;0.394;2023-02-04T00:30:20;32.93;;;23.60;;
17310;SDS011;8773;43.300;0.394;2023-02-04T00:32:48;37.00;;;27.00;;
17310;SDS011;8773;43.300;0.394;2023-02-04T00:35:19;31.43;;;23.57;;
17310;SDS011;8773;43.300;0.394;2023-02-04T00:37:48;29.63;;;22.30;;
17310;SDS011;8773;43.300;0.394;2023-02-04T00:40:19;27.67;;;21.27;;
17310;SDS011;8773;43.300;0.394;2023-02-04T00:42:48;31.87;;;22.80;;
17310;SDS011;8773;43.300;0.394;2023-02-04T00:45:16;28.20;;;23.77;;
17310;SDS011;8773;43.300;0.394;2023-02-04T00:47:44;29.27;;;22.93;;
17310;SDS011;8773;43.300;0.394;2023-02-04T00:50:12;30.93;;;23.23;;
17310;SDS011;8773;43.300;0.394;2023-02-04T00:52:41;35.93;;;25.43;;
17310;SDS011;8773;43.300;0.394;2023-02-04T00:55:09;34.27;;;24.17;;
17310;SDS011;8773;43.300;0.394;2023-02-04T00:57:37;28.47;;;22.27;;
17310;SDS011;8773;43.300;0.394;2023-02-04T01:00:07;25.40;;;20.80;;
17310;SDS011;8773;43.300;0.394;2023-02-04T01:02:36;25.43;;;19.80;;
17310;SDS011;8773;43.300;0.394;2023-02-04T01:05:06;24.33;;;19.70;;
17310;SDS011;8773;43.300;0.394;2023-02-04T01:07:34;25.77;;;18.60;;
17310;SDS011;8773;43.300;0.394;2023-02-04T01:10:02;26.63;;;19.10;;
17310;SDS011;8773;43.300;0.394;2023-02-04T01:12:31;24.33;;;18.93;;
17310;SDS011;8773;43.300;0.394;2023-02-04T01:14:59;24.87;;;20.40;;
17310;SDS011;8773;43.300;0.394;2023-02-04T01:17:28;26.13;;;20.87;;
17310;SDS011;8773;43.300;0.394;2023-02-04T01:19:56;26.13;;;21.33;;
17310;SDS011;8773;43.300;0.394;2023-02-04T01:22:24;27.67;;;19.23;;
17310;SDS011;8773;43.300;0.394;2023-02-04T01:24:52;22.60;;;19.30;;
17310;SDS011;8773;43.300;0.394;2023-02-04T01:27:20;27.07;;;19.67;;
17310;SDS011;8773;43.300;0.394;2023-02-04T01:29:48;26.13;;;18.83;;
17310;SDS011;8773;43.300;0.394;2023-02-04T01:32:16;27.90;;;21.77;;
17310;SDS011;8773;43.300;0.394;2023-02-04T01:34:45;22.93;;;20.33;;
17310;SDS011;8773;43.300;0.394;2023-02-04T01:37:13;25.10;;;19.70;;
17310;SDS011;8773;43.300;0.394;2023-02-04T01:39:43;25.77;;;20.67;;
17310;SDS011;8773;43.300;0.394;2023-02-04T01:42:11;30.43;;;21.33;;
17310;SDS011;8773;43.300;0.394;2023-02-04T01:44:39;25.00;;;19.93;;
17310;SDS011;8773;43.300;0.394;2023-02-04T01:47:07;24.23;;;18.97;;
17310;SDS011;8773;43.300;0.394;2023-02-04T01:49:36;26.80;;;20.67;;
17310;SDS011;8773;43.300;0.394;2023-02-04T01:52:05;24.87;;;19.77;;
17310;SDS011;8773;43.300;0.394;2023-02-04T01:54:34;23.40;;;18.60;;
17310;SDS011;8773;43.300;0.394;2023-02-04T01:57:02;23.70;;;18.87;;
17310;SDS011;8773;43.300;0.394;2023-02-04T01:59:32;22.70;;;18.33;;
17310;SDS011;8773;43.300;0.394;2023-02-04T02:02:00;23.73;;;18.60;;
17310;SDS011;8773;43.300;0.394;2023-02-04T02:04:29;20.83;;;17.57;;
17310;SDS011;8773;43.300;0.394;2023-02-04T02:07:00;22.20;;;17.53;;
17310;SDS011;8773;43.300;0.394;2023-02-04T02:09:31;22.27;;;15.93;;
17310;SDS011;8773;43.300;0.394;2023-02-04T02:12:01;22.70;;;16.63;;
17310;SDS011;8773;43.300;0.394;2023-02-04T02:14:30;21.27;;;17.00;;
17310;SDS011;8773;43.300;0.394;2023-02-04T02:16:58;20.53;;;17.87;;
17310;SDS011;8773;43.300;0.394;2023-02-04T02:19:28;25.83;;;18.17;;
17310;SDS011;8773;43.300;0.394;2023-02-04T02:22:02;21.13;;;18.87;;
17310;SDS011;8773;43.300;0.394;2023-02-04T02:24:34;24.73;;;19.80;;
17310;SDS011;8773;43.300;0.394;2023-02-04T02:27:03;24.90;;;19.77;;
17310;SDS011;8773;43.300;0.394;2023-02-04T02:29:34;21.60;;;18.57;;
17310;SDS011;8773;43.300;0.394;2023-02-04T02:32:04;22.83;;;19.60;;
17310;SDS011;8773;43.300;0.394;2023-02-04T02:34:33;22.97;;;19.33;;
17310;SDS011;8773;43.300;0.394;2023-02-04T02:37:01;21.50;;;19.20;;
17310;SDS011;8773;43.300;0.394;2023-02-04T02:39:31;22.47;;;17.87;;
17310;SDS011;8773;43.300;0.394;2023-02-04T02:42:00;20.80;;;18.13;;
17310;SDS011;8773;43.300;0.394;2023-02-04T02:44:28;20.97;;;18.27;;
17310;SDS011;8773;43.300;0.394;2023-02-04T02:46:58;22.77;;;17.87;;
17310;SDS011;8773;43.300;0.394;2023-02-04T02:49:27;19.80;;;16.73;;
17310;SDS011;8773;43.300;0.394;2023-02-04T02:51:58;20.40;;;18.17;;
17310;SDS011;8773;43.300;0.394;2023-02-04T02:54:27;22.33;;;17.47;;
17310;SDS011;8773;43.300;0.394;2023-02-04T02:56:57;18.37;;;16.37;;
17310;SDS011;8773;43.300;0.394;2023-02-04T02:59:27;19.20;;;15.83;;
17310;SDS011;8773;43.300;0.394;2023-02-04T03:01:55;18.50;;;15.90;;
17310;SDS011;8773;43.300;0.394;2023-02-04T03:04:27;18.23;;;15.40;;
17310;SDS011;8773;43.300;0.394;2023-02-04T03:06:57;20.30;;;14.70;;
17310;SDS011;8773;43.300;0.394;2023-02-04T03:09:26;20.47;;;15.80;;
17310;SDS011;8773;43.300;0.394;2023-02-04T03:11:56;19.47;;;15.37;;
17310;SDS011;8773;43.300;0.394;2023-02-04T03:14:24;19.03;;;15.70;;
17310;SDS011;8773;43.300;0.394;2023-02-04T03:16:54;16.80;;;15.00;;
17310;SDS011;8773;43.300;0.394;2023-02-04T03:19:22;17.57;;;15.67;;
17310;SDS011;8773;43.300;0.394;2023-02-04T03:21:52;19.83;;;14.17;;
17310;SDS011;8773;43.300;0.394;2023-02-04T03:24:22;17.77;;;14.63;;
17310;SDS011;8773;43.300;0.394;2023-02-04T03:26:50;22.07;;;15.67;;
17310;SDS011;8773;43.300;0.394;2023-02-04T03:29:19;19.27;;;14.53;;
17310;SDS011;8773;43.300;0.394;2023-02-04T03:31:47;16.20;;;13.33;;
17310;SDS011;8773;43.300;0.394;2023-02-04T03:34:16;18.47;;;13.83;;
17310;SDS011;8773;43.300;0.394;2023-02-04T03:36:44;15.70;;;14.03;;
17310;SDS011;8773;43.300;0.394;2023-02-04T03:39:12;18.90;;;14.23;;
17310;SDS011;8773;43.300;0.394;2023-02-04T03:41:41;16.47;;;13.33;;
17310;SDS011;8773;43.300;0.394;2023-02-04T03:44:09;17.20;;;14.17;;
17310;SDS011;8773;43.300;0.394;2023-02-04T03:46:36;15.97;;;13.37;;
17310;SDS011;8773;43.300;0.394;2023-02-04T03:49:04;17.67;;;13.10;;
17310;SDS011;8773;43.300;0.394;2023-02-04T03:51:34;14.93;;;13.33;;
17310;SDS011;8773;43.300;0.394;2023-02-04T03:54:02;16.63;;;13.33;;
17310;SDS011;8773;43.300;0.394;2023-02-04T03:56:30;15.63;;;12.33;;
17310;SDS011;8773;43.300;0.394;2023-02-04T03:58:58;14.87;;;12.53;;
17310;SDS011;8773;43.300;0.394;2023-02-04T04:01:26;16.23;;;12.33;;
17310;SDS011;8773;43.300;0.394;2023-02-04T04:03:54;14.57;;;11.77;;
17310;SDS011;8773;43.300;0.394;2023-02-04T04:06:22;15.67;;;11.77;;
17310;SDS011;8773;43.300;0.394;2023-02-04T04:08:51;14.67;;;12.37;;
17310;SDS011;8773;43.300;0.394;2023-02-04T04:11:19;15.37;;;11.63;;
17310;SDS011;8773;43.300;0.394;2023-02-04T04:13:48;15.13;;;11.70;;
17310;SDS011;8773;43.300;0.394;2023-02-04T04:16:16;15.50;;;11.83;;
17310;SDS011;8773;43.300;0.394;2023-02-04T04:18:46;16.10;;;11.63;;
17310;SDS011;8773;43.300;0.394;2023-02-04T04:21:14;12.53;;;10.83;;
17310;SDS011;8773;43.300;0.394;2023-02-04T04:23:42;12.97;;;10.30;;
17310;SDS011;8773;43.300;0.394;2023-02-04T04:26:12;14.83;;;11.50;;
17310;SDS011;8773;43.300;0.394;2023-02-04T04:28:40;13.23;;;10.37;;
17310;SDS011;8773;43.300;0.394;2023-02-04T04:31:08;13.17;;;11.20;;
17310;SDS011;8773;43.300;0.394;2023-02-04T04:33:36;16.27;;;10.97;;
17310;SDS011;8773;43.300;0.394;2023-02-04T04:36:07;13.00;;;10.17;;
17310;SDS011;8773;43.300;0.394;2023-02-04T04:38:35;13.20;;;10.47;;
17310;SDS011;8773;43.300;0.394;2023-02-04T04:41:03;13.80;;;11.23;;
17310;SDS011;8773;43.300;0.394;2023-02-04T04:43:32;15.97;;;11.27;;
17310;SDS011;8773;43.300;0.394;2023-02-04T04:46:00;16.03;;;11.27;;
17310;SDS011;8773;43.300;0.394;2023-02-04T04:48:28;12.77;;;11.00;;
17310;SDS011;8773;43.300;0.394;2023-02-04T04:50:57;14.67;;;10.63;;
17310;SDS011;8773;43.300;0.394;2023-02-04T04:53:25;12.93;;;10.10;;
17310;SDS011;8773;43.300;0.394;2023-02-04T04:55:52;12.60;;;11.17;;
17310;SDS011;8773;43.300;0.394;2023-02-04T04:58:20;14.37;;;10.23;;
17310;SDS011;8773;43.300;0.394;2023-02-04T05:00:50;12.00;;;10.67;;
17310;SDS011;8773;43.300;0.394;2023-02-04T05:03:18;12.03;;;10.80;;
17310;SDS011;8773;43.300;0.394;2023-02-04T05:05:46;14.37;;;11.13;;
17310;SDS011;8773;43.300;0.394;2023-02-04T05:08:14;12.23;;;10.60;;
17310;SDS011;8773;43.300;0.394;2023-02-04T05:10:45;15.57;;;11.30;;
17310;SDS011;8773;43.300;0.394;2023-02-04T05:13:13;14.27;;;10.97;;
17310;SDS011;8773;43.300;0.394;2023-02-04T05:15:44;13.00;;;9.73;;
17310;SDS011;8773;43.300;0.394;2023-02-04T05:18:13;14.17;;;10.43;;
17310;SDS011;8773;43.300;0.394;2023-02-04T05:20:41;11.03;;;9.63;;
17310;SDS011;8773;43.300;0.394;2023-02-04T05:23:09;12.97;;;10.47;;
17310;SDS011;8773;43.300;0.394;2023-02-04T05:25:37;11.47;;;10.30;;
17310;SDS011;8773;43.300;0.394;2023-02-04T05:28:05;11.90;;;10.07;;
17310;SDS011;8773;43.300;0.394;2023-02-04T05:30:33;10.83;;;9.67;;
17310;SDS011;8773;43.300;0.394;2023-02-04T05:33:01;10.83;;;9.60;;
17310;SDS011;8773;43.300;0.394;2023-02-04T05:35:31;10.90;;;9.80;;
17310;SDS011;8773;43.300;0.394;2023-02-04T05:37:59;11.77;;;10.50;;
17310;SDS011;8773;43.300;0.394;2023-02-04T05:40:27;11.50;;;10.30;;
17310;SDS011;8773;43.300;0.394;2023-02-04T05:42:56;11.63;;;10.30;;
17310;SDS011;8773;43.300;0.394;2023-02-04T05:45:24;13.50;;;10.47;;
17310;SDS011;8773;43.300;0.394;2023-02-04T05:47:52;11.30;;;9.80;;
17310;SDS011;8773;43.300;0.394;2023-02-04T05:50:20;13.87;;;10.40;;
17310;SDS011;8773;43.300;0.394;2023-02-04T05:52:49;11.90;;;9.80;;
17310;SDS011;8773;43.300;0.394;2023-02-04T05:55:17;11.77;;;9.83;;
17310;SDS011;8773;43.300;0.394;2023-02-04T05:57:48;12.67;;;10.00;;
17310;SDS011;8773;43.300;0.394;2023-02-04T06:00:16;12.43;;;9.67;;
17310;SDS011;8773;43.300;0.394;2023-02-04T06:02:44;14.27;;;10.13;;
17310;SDS011;8773;43.300;0.394;2023-02-04T06:05:12;13.57;;;10.27;;
17310;SDS011;8773;43.300;0.394;2023-02-04T06:07:41;12.73;;;9.63;;
17310;SDS011;8773;43.300;0.394;2023-02-04T06:10:10;11.80;;;10.17;;
17310;SDS011;8773;43.300;0.394;2023-02-04T06:12:38;14.73;;;11.23;;
17310;SDS011;8773;43.300;0.394;2023-02-04T06:15:06;11.40;;;10.13;;
17310;SDS011;8773;43.300;0.394;2023-02-04T06:17:35;11.60;;;9.60;;
17310;SDS011;8773;43.300;0.394;2023-02-04T06:20:03;11.57;;;9.70;;
17310;SDS011;8773;43.300;0.394;2023-02-04T06:22:32;19.83;;;10.50;;
17310;SDS011;8773;43.300;0.394;2023-02-04T06:25:00;11.83;;;10.27;;
17310;SDS011;8773;43.300;0.394;2023-02-04T06:27:30;11.33;;;10.23;;
17310;SDS011;8773;43.300;0.394;2023-02-04T06:29:58;13.80;;;10.93;;
17310;SDS011;8773;43.300;0.394;2023-02-04T06:32:29;13.33;;;10.13;;
17310;SDS011;8773;43.300;0.394;2023-02-04T06:34:57;12.97;;;10.63;;
17310;SDS011;8773;43.300;0.394;2023-02-04T06:37:25;12.03;;;10.13;;
17310;SDS011;8773;43.300;0.394;2023-02-04T06:39:53;11.27;;;10.17;;
17310;SDS011;8773;43.300;0.394;2023-02-04T06:42:22;12.00;;;9.97;;
17310;SDS011;8773;43.300;0.394;2023-02-04T06:44:53;13.33;;;10.70;;
17310;SDS011;8773;43.300;0.394;2023-02-04T06:47:21;12.43;;;11.13;;
17310;SDS011;8773;43.300;0.394;2023-02-04T06:49:49;12.27;;;10.97;;
17310;SDS011;8773;43.300;0.394;2023-02-04T06:52:17;16.47;;;11.87;;
17310;SDS011;8773;43.300;0.394;2023-02-04T06:54:45;13.03;;;10.47;;
17310;SDS011;8773;43.300;0.394;2023-02-04T06:57:13;12.23;;;10.80;;
17310;SDS011;8773;43.300;0.394;2023-02-04T06:59:41;13.43;;;10.80;;
17310;SDS011;8773;43.300;0.394;2023-02-04T07:02:10;15.67;;;11.40;;
17310;SDS011;8773;43.300;0.394;2023-02-04T07:04:38;25.17;;;15.17;;
17310;SDS011;8773;43.300;0.394;2023-02-04T07:07:07;18.90;;;13.80;;
17310;SDS011;8773;43.300;0.394;2023-02-04T07:09:35;20.90;;;14.43;;
17310;SDS011;8773;43.300;0.394;2023-02-04T07:12:05;23.20;;;14.40;;
17310;SDS011;8773;43.300;0.394;2023-02-04T07:14:34;19.47;;;14.63;;
17310;SDS011;8773;43.300;0.394;2023-02-04T07:17:02;17.80;;;12.47;;
17310;SDS011;8773;43.300;0.394;2023-02-04T07:19:31;14.13;;;10.93;;
17310;SDS011;8773;43.300;0.394;2023-02-04T07:22:00;14.03;;;10.83;;
17310;SDS011;8773;43.300;0.394;2023-02-04T07:24:28;13.73;;;10.63;;
17310;SDS011;8773;43.300;0.394;2023-02-04T07:26:59;15.70;;;10.83;;
17310;SDS011;8773;43.300;0.394;2023-02-04T07:29:28;12.70;;;11.40;;
17310;SDS011;8773;43.300;0.394;2023-02-04T07:31:56;13.33;;;11.40;;
17310;SDS011;8773;43.300;0.394;2023-02-04T07:34:24;14.07;;;11.70;;
17310;SDS011;8773;43.300;0.394;2023-02-04T07:36:54;15.97;;;12.10;;
17310;SDS011;8773;43.300;0.394;2023-02-04T07:39:22;14.17;;;12.67;;
17310;SDS011;8773;43.300;0.394;2023-02-04T07:41:50;15.90;;;12.20;;
17310;SDS011;8773;43.300;0.394;2023-02-04T07:44:18;14.80;;;12.60;;
17310;SDS011;8773;43.300;0.394;2023-02-04T07:46:46;13.70;;;12.20;;
17310;SDS011;8773;43.300;0.394;2023-02-04T07:49:14;13.67;;;11.70;;
17310;SDS011;8773;43.300;0.394;2023-02-04T07:51:42;17.10;;;12.33;;
17310;SDS011;8773;43.300;0.394;2023-02-04T07:54:11;13.97;;;11.70;;
17310;SDS011;8773;43.300;0.394;2023-02-04T07:56:39;14.37;;;10.87;;
17310;SDS011;8773;43.300;0.394;2023-02-04T07:59:07;14.03;;;11.63;;
17310;SDS011;8773;43.300;0.394;2023-02-04T08:01:38;14.63;;;10.87;;
17310;SDS011;8773;43.300;0.394;2023-02-04T08:04:06;13.60;;;11.07;;
17310;SDS011;8773;43.300;0.394;2023-02-04T08:06:38;11.23;;;9.67;;
17310;SDS011;8773;43.300;0.394;2023-02-04T08:09:06;14.03;;;10.70;;
17310;SDS011;8773;43.300;0.394;2023-02-04T08:11:35;13.90;;;10.03;;
17310;SDS011;8773;43.300;0.394;2023-02-04T08:14:03;13.57;;;11.17;;
17310;SDS011;8773;43.300;0.394;2023-02-04T08:16:31;14.53;;;10.77;;
17310;SDS011;8773;43.300;0.394;2023-02-04T08:18:59;14.57;;;10.30;;
17310;SDS011;8773;43.300;0.394;2023-02-04T08:21:27;17.97;;;9.90;;
17310;SDS011;8773;43.300;0.394;2023-02-04T08:23:55;16.60;;;10.70;;
17310;SDS011;8773;43.300;0.394;2023-02-04T08:26:23;12.60;;;11.30;;
17310;SDS011;8773;43.300;0.394;2023-02-04T08:28:53;17.07;;;11.43;;
17310;SDS011;8773;43.300;0.394;2023-02-04T08:31:21;13.50;;;11.07;;
17310;SDS011;8773;43.300;0.394;2023-02-04T08:33:49;13.80;;;10.50;;
17310;SDS011;8773;43.300;0.394;2023-02-04T08:36:17;12.23;;;10.83;;
17310;SDS011;8773;43.300;0.394;2023-02-04T08:38:45;14.30;;;12.87;;
17310;SDS011;8773;43.300;0.394;2023-02-04T08:41:13;16.80;;;12.00;;
17310;SDS011;8773;43.300;0.394;2023-02-04T08:43:41;13.47;;;12.03;;
17310;SDS011;8773;43.300;0.394;2023-02-04T08:46:11;12.63;;;11.33;;
17310;SDS011;8773;43.300;0.394;2023-02-04T08:48:39;12.20;;;11.10;;
17310;SDS011;8773;43.300;0.394;2023-02-04T08:51:07;13.73;;;11.20;;
17310;SDS011;8773;43.300;0.394;2023-02-04T08:53:35;14.00;;;10.03;;
17310;SDS011;8773;43.300;0.394;2023-02-04T08:56:05;12.70;;;10.70;;
17310;SDS011;8773;43.300;0.394;2023-02-04T08:58:34;13.90;;;11.17;;
17310;SDS011;8773;43.300;0.394;2023-02-04T09:01:02;15.20;;;10.90;;
17310;SDS011;8773;43.300;0.394;2023-02-04T09:03:33;12.77;;;11.30;;
17310;SDS011;8773;43.300;0.394;2023-02-04T09:06:01;13.90;;;11.43;;
17310;SDS011;8773;43.300;0.394;2023-02-04T09:08:30;13.33;;;11.57;;
17310;SDS011;8773;43.300;0.394;2023-02-04T09:10:58;13.90;;;10.80;;
17310;SDS011;8773;43.300;0.394;2023-02-04T09:13:26;13.33;;;10.80;;
17310;SDS011;8773;43.300;0.394;2023-02-04T09:15:54;13.53;;;11.33;;
17310;SDS011;8773;43.300;0.394;2023-02-04T09:18:22;12.87;;;11.47;;
17310;SDS011;8773;43.300;0.394;2023-02-04T09:20:52;12.60;;;11.20;;
17310;SDS011;8773;43.300;0.394;2023-02-04T09:23:20;15.07;;;13.10;;
17310;SDS011;8773;43.300;0.394;2023-02-04T09:25:49;12.50;;;11.40;;
17310;SDS011;8773;43.300;0.394;2023-02-04T09:28:17;12.60;;;10.80;;
17310;SDS011;8773;43.300;0.394;2023-02-04T09:30:45;12.07;;;10.70;;
17310;SDS011;8773;43.300;0.394;2023-02-04T09:33:15;13.23;;;11.00;;
17310;SDS011;8773;43.300;0.394;2023-02-04T09:35:43;11.83;;;10.40;;
17310;SDS011;8773;43.300;0.394;2023-02-04T09:38:13;14.10;;;10.30;;
17310;SDS011;8773;43.300;0.394;2023-02-04T09:40:41;10.87;;;9.73;;
17310;SDS011;8773;43.300;0.394;2023-02-04T09:43:15;14.70;;;10.73;;
17310;SDS011;8773;43.300;0.394;2023-02-04T09:45:48;14.37;;;10.57;;
17310;SDS011;8773;43.300;0.394;2023-02-04T09:48:16;13.83;;;10.30;;
17310;SDS011;8773;43.300;0.394;2023-02-04T09:50:44;13.43;;;10.00;;
17310;SDS011;8773;43.300;0.394;2023-02-04T09:53:14;10.17;;;9.17;;
17310;SDS011;8773;43.300;0.394;2023-02-04T09:55:47;11.43;;;10.27;;
17310;SDS011;8773;43.300;0.394;2023-02-04T09:58:18;14.83;;;9.83;;
17310;SDS011;8773;43.300;0.394;2023-02-04T10:00:51;10.30;;;9.33;;
17310;SDS011;8773;43.300;0.394;2023-02-04T10:03:25;12.57;;;10.27;;
17310;SDS011;8773;43.300;0.394;2023-02-04T10:05:54;11.77;;;9.87;;
17310;SDS011;8773;43.300;0.394;2023-02-04T10:08:24;12.27;;;9.67;;
17310;SDS011;8773;43.300;0.394;2023-02-04T10:10:55;11.00;;;8.60;;
17310;SDS011;8773;43.300;0.394;2023-02-04T10:13:26;10.87;;;9.63;;
17310;SDS011;8773;43.300;0.394;2023-02-04T10:15:58;10.33;;;9.23;;
17310;SDS011;8773;43.300;0.394;2023-02-04T10:18:29;9.60;;;8.60;;
17310;SDS011;8773;43.300;0.394;2023-02-04T10:21:03;12.30;;;9.13;;
17310;SDS011;8773;43.300;0.394;2023-02-04T10:23:40;13.03;;;9.87;;
17310;SDS011;8773;43.300;0.394;2023-02-04T10:26:10;10.77;;;8.83;;
17310;SDS011;8773;43.300;0.394;2023-02-04T10:28:38;12.57;;;9.33;;
17310;SDS011;8773;43.300;0.394;2023-02-04T10:31:09;13.90;;;10.00;;
17310;SDS011;8773;43.300;0.394;2023-02-04T10:34:02;11.87;;;9.97;;
17310;SDS011;8773;43.300;0.394;2023-02-04T10:36:31;10.57;;;9.50;;
17310;SDS011;8773;43.300;0.394;2023-02-04T10:39:00;14.50;;;9.53;;
17310;SDS011;8773;43.300;0.394;2023-02-04T10:41:29;14.17;;;9.20;;
17310;SDS011;8773;43.300;0.394;2023-02-04T10:44:02;13.27;;;9.67;;
17310;SDS011;8773;43.300;0.394;2023-02-04T10:46:31;12.20;;;8.93;;
17310;SDS011;8773;43.300;0.394;2023-02-04T10:48:59;12.77;;;9.00;;
17310;SDS011;8773;43.300;0.394;2023-02-04T10:51:31;13.40;;;8.00;;
17310;SDS011;8773;43.300;0.394;2023-02-04T10:54:01;8.87;;;7.97;;
17310;SDS011;8773;43.300;0.394;2023-02-04T10:56:46;11.53;;;7.97;;
17310;SDS011;8773;43.300;0.394;2023-02-04T10:59:18;10.83;;;7.50;;
17310;SDS011;8773;43.300;0.394;2023-02-04T11:01:52;10.47;;;7.87;;
17310;SDS011;8773;43.300;0.394;2023-02-04T11:04:22;9.80;;;7.77;;
17310;SDS011;8773;43.300;0.394;2023-02-04T11:06:50;10.17;;;7.53;;
17310;SDS011;8773;43.300;0.394;2023-02-04T11:09:21;8.20;;;7.40;;
17310;SDS011;8773;43.300;0.394;2023-02-04T11:11:49;10.13;;;7.57;;
17310;SDS011;8773;43.300;0.394;2023-02-04T11:14:22;15.37;;;8.20;;
17310;SDS011;8773;43.300;0.394;2023-02-04T11:16:53;12.40;;;8.40;;
17310;SDS011;8773;43.300;0.394;2023-02-04T11:19:30;9.33;;;8.17;;
17310;SDS011;8773;43.300;0.394;2023-02-04T11:22:17;11.53;;;8.57;;
17310;SDS011;8773;43.300;0.394;2023-02-04T11:24:49;11.27;;;7.57;;
17310;SDS011;8773;43.300;0.394;2023-02-04T11:27:20;10.83;;;7.77;;
17310;SDS011;8773;43.300;0.394;2023-02-04T11:29:49;11.40;;;7.03;;
17310;SDS011;8773;43.300;0.394;2023-02-04T11:32:29;10.90;;;7.77;;
17310;SDS011;8773;43.300;0.394;2023-02-04T11:35:07;12.43;;;8.03;;
17310;SDS011;8773;43.300;0.394;2023-02-04T11:37:48;9.87;;;6.90;;
17310;SDS011;8773;43.300;0.394;2023-02-04T11:40:26;11.53;;;7.40;;
17310;SDS011;8773;43.300;0.394;2023-02-04T11:42:57;8.97;;;7.40;;
17310;SDS011;8773;43.300;0.394;2023-02-04T11:45:28;8.47;;;6.40;;
17310;SDS011;8773;43.300;0.394;2023-02-04T11:47:59;9.40;;;6.70;;
17310;SDS011;8773;43.300;0.394;2023-02-04T11:50:30;8.70;;;6.77;;
17310;SDS011;8773;43.300;0.394;2023-02-04T11:53:00;8.73;;;5.80;;
17310;SDS011;8773;43.300;0.394;2023-02-04T11:55:31;9.17;;;6.40;;
17310;SDS011;8773;43.300;0.394;2023-02-04T11:58:02;7.07;;;5.90;;
17310;SDS011;8773;43.300;0.394;2023-02-04T12:00:31;6.87;;;6.20;;
17310;SDS011;8773;43.300;0.394;2023-02-04T12:03:01;8.13;;;5.40;;
17310;SDS011;8773;43.300;0.394;2023-02-04T12:05:46;8.30;;;5.47;;
17310;SDS011;8773;43.300;0.394;2023-02-04T12:08:24;7.07;;;6.37;;
17310;SDS011;8773;43.300;0.394;2023-02-04T12:11:02;10.07;;;6.83;;
17310;SDS011;8773;43.300;0.394;2023-02-04T12:13:33;7.23;;;6.07;;
17310;SDS011;8773;43.300;0.394;2023-02-04T12:16:13;11.70;;;6.27;;
17310;SDS011;8773;43.300;0.394;2023-02-04T12:18:41;7.37;;;6.63;;
17310;SDS011;8773;43.300;0.394;2023-02-04T12:21:10;7.37;;;6.70;;
17310;SDS011;8773;43.300;0.394;2023-02-04T12:23:39;7.53;;;6.77;;
17310;SDS011;8773;43.300;0.394;2023-02-04T12:26:10;7.50;;;6.70;;
17310;SDS011;8773;43.300;0.394;2023-02-04T12:28:38;8.53;;;7.40;;
17310;SDS011;8773;43.300;0.394;2023-02-04T12:31:06;11.10;;;6.40;;
17310;SDS011;8773;43.300;0.394;2023-02-04T12:33:34;6.47;;;5.87;;
17310;SDS011;8773;43.300;0.394;2023-02-04T12:36:03;8.13;;;6.20;;
17310;SDS011;8773;43.300;0.394;2023-02-04T12:38:31;9.40;;;8.40;;
17310;SDS011;8773;43.300;0.394;2023-02-04T12:40:59;8.87;;;6.67;;
17310;SDS011;8773;43.300;0.394;2023-02-04T12:43:29;8.73;;;7.93;;
17310;SDS011;8773;43.300;0.394;2023-02-04T12:45:57;7.37;;;6.80;;
17310;SDS011;8773;43.300;0.394;2023-02-04T12:48:25;8.13;;;6.17;;
17310;SDS011;8773;43.300;0.394;2023-02-04T12:50:53;9.10;;;7.00;;
17310;SDS011;8773;43.300;0.394;2023-02-04T12:53:21;10.90;;;6.73;;
17310;SDS011;8773;43.300;0.394;2023-02-04T12:55:49;7.00;;;5.97;;
17310;SDS011;8773;43.300;0.394;2023-02-04T12:58:17;7.20;;;6.10;;
17310;SDS011;8773;43.300;0.394;2023-02-04T13:00:46;10.87;;;6.37;;
17310;SDS011;8773;43.300;0.394;2023-02-04T13:03:14;6.97;;;6.10;;
17310;SDS011;8773;43.300;0.394;2023-02-04T13:05:42;10.00;;;6.37;;
17310;SDS011;8773;43.300;0.394;2023-02-04T13:08:10;6.60;;;6.00;;
17310;SDS011;8773;43.300;0.394;2023-02-04T13:10:38;7.07;;;5.63;;
17310;SDS011;8773;43.300;0.394;2023-02-04T13:13:06;8.13;;;6.90;;
17310;SDS011;8773;43.300;0.394;2023-02-04T13:15:34;8.50;;;6.33;;
17310;SDS011;8773;43.300;0.394;2023-02-04T13:18:03;8.87;;;6.23;;
17310;SDS011;8773;43.300;0.394;2023-02-04T13:20:33;6.40;;;5.73;;
17310;SDS011;8773;43.300;0.394;2023-02-04T13:23:01;9.43;;;6.10;;
17310;SDS011;8773;43.300;0.394;2023-02-04T13:25:30;9.77;;;6.03;;
17310;SDS011;8773;43.300;0.394;2023-02-04T13:27:58;8.37;;;6.30;;
17310;SDS011;8773;43.300;0.394;2023-02-04T13:30:26;7.83;;;6.20;;
17310;SDS011;8773;43.300;0.394;2023-02-04T13:32:54;6.83;;;5.90;;
17310;SDS011;8773;43.300;0.394;2023-02-04T13:35:24;7.77;;;6.37;;
17310;SDS011;8773;43.300;0.394;2023-02-04T13:37:54;6.33;;;5.80;;
17310;SDS011;8773;43.300;0.394;2023-02-04T13:40:22;8.97;;;6.50;;
17310;SDS011;8773;43.300;0.394;2023-02-04T13:42:50;6.70;;;6.10;;
17310;SDS011;8773;43.300;0.394;2023-02-04T13:45:19;8.27;;;5.97;;
17310;SDS011;8773;43.300;0.394;2023-02-04T13:47:50;7.40;;;6.33;;
17310;SDS011;8773;43.300;0.394;2023-02-04T13:50:18;9.53;;;6.20;;
17310;SDS011;8773;43.300;0.394;2023-02-04T13:52:47;7.07;;;5.90;;
17310;SDS011;8773;43.300;0.394;2023-02-04T13:55:15;6.03;;;5.23;;
17310;SDS011;8773;43.300;0.394;2023-02-04T13:57:43;9.60;;;5.83;;
17310;SDS011;8773;43.300;0.394;2023-02-04T14:00:12;5.90;;;5.30;;
17310;SDS011;8773;43.300;0.394;2023-02-04T14:02:40;8.07;;;5.47;;
17310;SDS011;8773;43.300;0.394;2023-02-04T14:05:08;6.83;;;5.90;;
17310;SDS011;8773;43.300;0.394;2023-02-04T14:07:36;7.73;;;6.00;;
17310;SDS011;8773;43.300;0.394;2023-02-04T14:10:06;7.07;;;5.90;;
17310;SDS011;8773;43.300;0.394;2023-02-04T14:12:34;11.07;;;5.80;;
17310;SDS011;8773;43.300;0.394;2023-02-04T14:15:03;6.23;;;5.63;;
17310;SDS011;8773;43.300;0.394;2023-02-04T14:17:31;9.20;;;5.43;;
17310;SDS011;8773;43.300;0.394;2023-02-04T14:19:59;8.30;;;5.33;;
17310;SDS011;8773;43.300;0.394;2023-02-04T14:22:28;9.07;;;5.10;;
17310;SDS011;8773;43.300;0.394;2023-02-04T14:24:56;6.07;;;5.23;;
17310;SDS011;8773;43.300;0.394;2023-02-04T14:27:26;8.33;;;6.27;;
17310;SDS011;8773;43.300;0.394;2023-02-04T14:29:54;6.47;;;5.63;;
17310;SDS011;8773;43.300;0.394;2023-02-04T14:32:22;8.33;;;5.97;;
17310;SDS011;8773;43.300;0.394;2023-02-04T14:34:51;7.03;;;5.70;;
17310;SDS011;8773;43.300;0.394;2023-02-04T14:37:19;7.30;;;5.60;;
17310;SDS011;8773;43.300;0.394;2023-02-04T14:39:47;9.17;;;5.87;;
17310;SDS011;8773;43.300;0.394;2023-02-04T14:42:15;7.00;;;5.30;;
17310;SDS011;8773;43.300;0.394;2023-02-04T14:44:44;6.00;;;5.33;;
17310;SDS011;8773;43.300;0.394;2023-02-04T14:47:13;7.57;;;5.43;;
17310;SDS011;8773;43.300;0.394;2023-02-04T14:49:41;5.00;;;4.53;;
17310;SDS011;8773;43.300;0.394;2023-02-04T14:52:09;7.87;;;5.60;;
17310;SDS011;8773;43.300;0.394;2023-02-04T14:54:38;5.47;;;4.97;;